createdAt,value
2023-04-28T00:00:31.852Z,101315.13
2023-04-28T00:01:32.390Z,101316.14
2023-04-28T00:02:34.076Z,101317.57
2023-04-28T00:03:33.716Z,101318.25
2023-04-28T00:03:42.471Z,101297.72
2023-04-28T00:04:42.892Z,101300.39
2023-04-28T00:05:43.080Z,101302.21
2023-04-28T00:06:43.653Z,101303.95
2023-04-28T00:07:44.384Z,101305.94
2023-04-28T00:08:44.973Z,101308.78
2023-04-28T00:09:45.534Z,101310.34
2023-04-28T00:10:46.249Z,101312.34
2023-04-28T00:11:46.839Z,101314.16
2023-04-28T00:12:47.383Z,101316.83
2023-04-28T00:13:48.924Z,101318.69
2023-04-28T00:14:48.883Z,101320.09
2023-04-28T00:14:57.544Z,101303.29
2023-04-28T00:15:58.308Z,101305.87
2023-04-28T00:16:59.045Z,101307.86
2023-04-28T00:18:00.050Z,101309.52
2023-04-28T00:19:00.573Z,101310.53
2023-04-28T00:20:01.049Z,101310.23
2023-04-28T00:21:01.597Z,101309.72
2023-04-28T00:22:02.256Z,101308.80
2023-04-28T00:23:02.775Z,101306.92
2023-04-28T00:24:03.358Z,101304.00
2023-04-28T00:25:04.017Z,101301.08
2023-04-28T00:26:04.528Z,101297.48
2023-04-28T00:26:13.172Z,101265.06
2023-04-28T00:27:13.157Z,101263.77
2023-04-28T00:28:18.321Z,101261.56
2023-04-28T00:29:14.474Z,101259.63
2023-04-28T00:30:15.114Z,101256.80
2023-04-28T00:31:15.724Z,101253.20
2023-04-28T00:32:15.877Z,101249.73
2023-04-28T00:33:16.512Z,101246.52
2023-04-28T00:34:17.425Z,101243.09
2023-04-28T00:35:17.773Z,101239.49
2023-04-28T00:36:25.379Z,101235.00
2023-04-28T00:37:19.031Z,101230.80
2023-04-28T00:37:28.637Z,101226.28
2023-04-28T00:38:29.222Z,101221.45
2023-04-28T00:39:29.906Z,101216.80
2023-04-28T00:40:31.396Z,101211.43
2023-04-28T00:41:30.887Z,101207.24
2023-04-28T00:42:31.438Z,101202.33
2023-04-28T00:43:31.972Z,101197.05
2023-04-28T00:44:32.666Z,101192.10
2023-04-28T00:45:33.740Z,101186.91
2023-04-28T00:46:34.245Z,101181.73
2023-04-28T00:47:34.928Z,101175.86
2023-04-28T00:47:43.653Z,101170.75
2023-04-28T00:48:44.113Z,101165.47
2023-04-28T00:49:44.212Z,101159.88
2023-04-28T00:50:44.689Z,101154.26
2023-04-28T00:51:45.221Z,101148.92
2023-04-28T00:52:45.823Z,101143.39
2023-04-28T00:53:46.360Z,101138.36
2023-04-28T00:54:46.936Z,101133.11
2023-04-28T00:55:47.537Z,101127.70
2023-04-28T00:56:48.393Z,101122.83
2023-04-28T00:57:49.108Z,101119.23
2023-04-28T00:57:57.788Z,101114.86
2023-04-28T00:58:58.437Z,101111.23
2023-04-28T00:59:59.013Z,101108.02
2023-04-28T01:00:59.629Z,101104.88
2023-04-28T01:02:00.272Z,101101.70
2023-04-28T01:03:01.366Z,101098.94
2023-04-28T01:04:01.927Z,101096.14
2023-04-28T01:05:02.490Z,101094.24
2023-04-28T01:06:03.011Z,101091.95
2023-04-28T01:07:03.621Z,101089.23
2023-04-28T01:08:04.450Z,101085.94
2023-04-28T01:09:05.142Z,101083.18
2023-04-28T01:09:13.762Z,101079.20
2023-04-28T01:10:14.680Z,101075.52
2023-04-28T01:11:15.433Z,101071.63
2023-04-28T01:12:16.018Z,101067.48
2023-04-28T01:13:16.375Z,101063.80
2023-04-28T01:14:17.277Z,101059.05
2023-04-28T01:15:17.261Z,101054.23
2023-04-28T01:16:17.892Z,101049.75
2023-04-28T01:17:18.696Z,101045.06
2023-04-28T01:18:18.779Z,101040.59
2023-04-28T01:19:19.456Z,101035.14
2023-04-28T01:19:28.100Z,101030.45
2023-04-28T01:20:28.696Z,101026.02
2023-04-28T01:21:29.274Z,101021.16
2023-04-28T01:22:29.450Z,101016.72
2023-04-28T01:23:30.094Z,101012.04
2023-04-28T01:24:30.718Z,101007.69
2023-04-28T01:25:31.175Z,101003.42
2023-04-28T01:26:31.687Z,100998.90
2023-04-28T01:27:32.364Z,100993.92
2023-04-28T01:28:32.959Z,100989.48
2023-04-28T01:29:33.586Z,100984.30
2023-04-28T01:30:34.111Z,100979.66
2023-04-28T01:30:42.717Z,100974.72
2023-04-28T01:31:43.611Z,100970.50
2023-04-28T01:32:44.487Z,100965.56
2023-04-28T01:33:45.105Z,100961.09
2023-04-28T01:34:45.730Z,100956.88
2023-04-28T01:35:46.306Z,100952.82
2023-04-28T01:36:46.928Z,100949.61
2023-04-28T01:37:47.493Z,100946.33
2023-04-28T01:38:48.475Z,100943.04
2023-04-28T01:39:49.074Z,100939.78
2023-04-28T01:40:49.188Z,100937.00
2023-04-28T01:41:00.324Z,100934.89
2023-04-28T01:42:00.900Z,100932.98
2023-04-28T01:43:01.494Z,100930.04
2023-04-28T01:44:02.102Z,100928.02
2023-04-28T01:45:02.841Z,100925.73
2023-04-28T01:46:04.376Z,100922.95
2023-04-28T01:47:03.901Z,100920.09
2023-04-28T01:48:04.538Z,100917.13
2023-04-28T01:49:05.056Z,100914.01
2023-04-28T01:50:05.698Z,100910.94
2023-04-28T01:51:06.239Z,100908.19
2023-04-28T01:52:06.806Z,100904.53
2023-04-28T01:52:15.417Z,100900.64
2023-04-28T01:53:16.238Z,100897.23
2023-04-28T01:54:17.084Z,100893.81
2023-04-28T01:55:17.523Z,100890.47
2023-04-28T01:56:18.108Z,100887.69
2023-04-28T01:57:19.534Z,100882.92
2023-04-28T01:58:19.160Z,100879.12
2023-04-28T01:59:19.198Z,100875.53
2023-04-28T02:00:19.755Z,100872.50
2023-04-28T02:01:20.399Z,100869.34
2023-04-28T02:02:20.940Z,100865.58
2023-04-28T02:03:21.773Z,100862.55
2023-04-28T02:03:30.219Z,100834.59
2023-04-28T02:04:31.078Z,100833.12
2023-04-28T02:05:31.619Z,100831.84
2023-04-28T02:06:32.197Z,100830.51
2023-04-28T02:07:32.459Z,100829.29
2023-04-28T02:08:32.968Z,100827.59
2023-04-28T02:09:33.535Z,100825.62
2023-04-28T02:10:34.145Z,100823.94
2023-04-28T02:11:34.815Z,100822.00
2023-04-28T02:12:35.375Z,100820.31
2023-04-28T02:13:36.948Z,100818.45
2023-04-28T02:14:36.562Z,100816.77
2023-04-28T02:14:45.263Z,100793.76
2023-04-28T02:15:45.864Z,100793.47
2023-04-28T02:16:46.558Z,100792.92
2023-04-28T02:17:47.188Z,100791.61
2023-04-28T02:18:47.727Z,100789.34
2023-04-28T02:19:48.309Z,100787.41
2023-04-28T02:20:48.921Z,100785.84
2023-04-28T02:21:49.491Z,100785.13
2023-04-28T02:22:51.096Z,100784.55
2023-04-28T02:23:50.728Z,100784.42
2023-04-28T02:24:51.302Z,100785.48
2023-04-28T02:25:00.549Z,100769.98
2023-04-28T02:26:01.536Z,100772.78
2023-04-28T02:27:02.081Z,100776.12
2023-04-28T02:28:03.039Z,100779.42
2023-04-28T02:29:03.598Z,100782.92
2023-04-28T02:30:04.091Z,100786.14
2023-04-28T02:31:04.918Z,100790.28
2023-04-28T02:32:05.476Z,100794.03
2023-04-28T02:33:06.134Z,100797.20
2023-04-28T02:34:06.555Z,100800.20
2023-04-28T02:35:07.281Z,100803.55
2023-04-28T02:36:07.917Z,100806.55
2023-04-28T02:36:23.748Z,100810.30
2023-04-28T02:37:24.471Z,100813.72
2023-04-28T02:38:25.222Z,100816.77
2023-04-28T02:39:25.766Z,100818.57
2023-04-28T02:40:26.384Z,100819.67
2023-04-28T02:41:26.960Z,100821.20
2023-04-28T02:42:27.860Z,100821.91
2023-04-28T02:43:28.765Z,100823.19
2023-04-28T02:44:29.373Z,100822.67
2023-04-28T02:45:31.018Z,100821.83
2023-04-28T02:46:31.676Z,100820.61
2023-04-28T02:46:43.865Z,100818.88
2023-04-28T02:47:44.108Z,100817.36
2023-04-28T02:48:44.552Z,100815.88
2023-04-28T02:49:45.168Z,100814.23
2023-04-28T02:50:45.699Z,100812.21
2023-04-28T02:51:46.377Z,100809.55
2023-04-28T02:52:48.970Z,100807.73
2023-04-28T02:53:46.940Z,100805.61
2023-04-28T02:54:47.428Z,100803.72
2023-04-28T02:55:48.039Z,100801.31
2023-04-28T02:56:48.656Z,100799.34
2023-04-28T02:57:49.206Z,100797.86
2023-04-28T02:57:57.808Z,100795.95
2023-04-28T02:58:59.403Z,100793.55
2023-04-28T02:59:58.958Z,100792.11
2023-04-28T03:00:59.940Z,100790.72
2023-04-28T03:02:00.663Z,100788.61
2023-04-28T03:03:01.337Z,100786.50
2023-04-28T03:04:02.285Z,100784.14
2023-04-28T03:05:03.003Z,100782.70
2023-04-28T03:06:03.446Z,100780.67
2023-04-28T03:07:04.253Z,100779.75
2023-04-28T03:08:04.909Z,100778.56
2023-04-28T03:09:05.650Z,100777.30
2023-04-28T03:09:14.276Z,100776.63
2023-04-28T03:10:14.946Z,100775.41
2023-04-28T03:11:15.715Z,100774.69
2023-04-28T03:12:16.405Z,100773.34
2023-04-28T03:13:17.223Z,100772.36
2023-04-28T03:14:17.958Z,100771.47
2023-04-28T03:15:18.252Z,100770.08
2023-04-28T03:16:19.185Z,100769.23
2023-04-28T03:17:19.862Z,100768.34
2023-04-28T03:18:20.082Z,100767.17
2023-04-28T03:19:20.626Z,100766.20
2023-04-28T03:20:21.217Z,100765.31
2023-04-28T03:20:30.328Z,100764.52
2023-04-28T03:21:30.957Z,100763.88
2023-04-28T03:22:31.686Z,100763.33
2023-04-28T03:23:32.297Z,100762.52
2023-04-28T03:24:32.835Z,100761.77
2023-04-28T03:25:33.466Z,100760.84
2023-04-28T03:26:34.081Z,100759.78
2023-04-28T03:27:34.782Z,100758.55
2023-04-28T03:28:35.320Z,100756.49
2023-04-28T03:29:35.924Z,100754.17
2023-04-28T03:30:36.483Z,100752.47
2023-04-28T03:31:37.122Z,100749.40
2023-04-28T03:31:45.763Z,100745.98
2023-04-28T03:32:46.433Z,100743.23
2023-04-28T03:33:47.329Z,100739.91
2023-04-28T03:34:47.865Z,100736.15
2023-04-28T03:35:48.548Z,100733.23
2023-04-28T03:36:48.610Z,100729.82
2023-04-28T03:37:49.729Z,100726.87
2023-04-28T03:38:49.669Z,100723.08
2023-04-28T03:39:50.332Z,100719.63
2023-04-28T03:40:50.866Z,100715.69
2023-04-28T03:41:52.641Z,100712.23
2023-04-28T03:42:03.368Z,100708.53
2023-04-28T03:43:04.881Z,100705.61
2023-04-28T03:44:04.466Z,100701.73
2023-04-28T03:45:05.199Z,100698.14
2023-04-28T03:46:05.725Z,100694.69
2023-04-28T03:47:06.417Z,100691.27
2023-04-28T03:48:07.044Z,100687.23
2023-04-28T03:49:07.578Z,100683.09
2023-04-28T03:50:08.373Z,100678.41
2023-04-28T03:51:08.684Z,100674.23
2023-04-28T03:52:10.406Z,100669.59
2023-04-28T03:52:19.094Z,100665.21
2023-04-28T03:53:19.748Z,100661.84
2023-04-28T03:54:20.278Z,100658.05
2023-04-28T03:55:20.786Z,100654.16
2023-04-28T03:56:21.411Z,100650.87
2023-04-28T03:57:22.258Z,100647.16
2023-04-28T03:58:23.097Z,100644.37
2023-04-28T03:59:23.910Z,100641.01
2023-04-28T04:00:24.626Z,100638.48
2023-04-28T04:01:26.280Z,100636.20
2023-04-28T04:02:25.635Z,100633.13
2023-04-28T04:02:37.881Z,100630.00
2023-04-28T04:03:38.669Z,100627.47
2023-04-28T04:04:39.217Z,100624.36
2023-04-28T04:05:40.244Z,100621.57
2023-04-28T04:06:40.808Z,100619.13
2023-04-28T04:07:41.115Z,100616.84
2023-04-28T04:08:41.935Z,100614.83
2023-04-28T04:09:42.675Z,100613.05
2023-04-28T04:10:43.305Z,100611.20
2023-04-28T04:11:44.074Z,100609.42
2023-04-28T04:12:44.887Z,100608.25
2023-04-28T04:13:45.758Z,100606.85
2023-04-28T04:13:54.362Z,100605.55
2023-04-28T04:14:55.087Z,100604.48
2023-04-28T04:15:55.990Z,100603.06
2023-04-28T04:16:56.645Z,100602.30
2023-04-28T04:17:57.311Z,100601.12
2023-04-28T04:18:58.096Z,100600.19
2023-04-28T04:19:59.193Z,100599.02
2023-04-28T04:20:58.892Z,100597.80
2023-04-28T04:21:59.618Z,100596.48
2023-04-28T04:23:00.177Z,100595.42
2023-04-28T04:24:01.117Z,100594.09
2023-04-28T04:25:01.797Z,100592.91
2023-04-28T04:25:11.639Z,100592.14
2023-04-28T04:26:12.335Z,100591.38
2023-04-28T04:27:13.201Z,100590.20
2023-04-28T04:28:13.976Z,100589.36
2023-04-28T04:29:14.162Z,100588.39
2023-04-28T04:30:15.022Z,100587.62
2023-04-28T04:31:15.933Z,100586.07
2023-04-28T04:32:16.740Z,100585.44
2023-04-28T04:33:17.605Z,100584.72
2023-04-28T04:34:18.511Z,100584.47
2023-04-28T04:35:18.331Z,100584.34
2023-04-28T04:36:18.431Z,100584.30
2023-04-28T04:37:18.899Z,100584.08
2023-04-28T04:37:27.513Z,100584.00
2023-04-28T04:38:27.883Z,100583.75
2023-04-28T04:39:29.026Z,100583.33
2023-04-28T04:40:28.828Z,100582.61
2023-04-28T04:41:28.865Z,100581.94
2023-04-28T04:42:29.658Z,100581.77
2023-04-28T04:43:30.354Z,100581.73
2023-04-28T04:44:30.488Z,100581.22
2023-04-28T04:45:31.113Z,100580.50
2023-04-28T04:46:31.962Z,100579.63
2023-04-28T04:47:32.650Z,100578.86
2023-04-28T04:48:33.429Z,100577.98
2023-04-28T04:48:44.628Z,100578.02
2023-04-28T04:49:45.035Z,100577.75
2023-04-28T04:50:45.619Z,100577.75
2023-04-28T04:51:46.082Z,100577.25
2023-04-28T04:52:46.307Z,100576.28
2023-04-28T04:53:46.879Z,100574.94
2023-04-28T04:54:47.563Z,100573.92
2023-04-28T04:55:47.969Z,100572.66
2023-04-28T04:56:49.551Z,100571.19
2023-04-28T04:57:49.273Z,100569.66
2023-04-28T04:58:49.600Z,100569.02
2023-04-28T04:59:50.226Z,100568.23
2023-04-28T05:00:01.957Z,100567.67
2023-04-28T05:01:03.536Z,100566.37
2023-04-28T05:02:03.154Z,100565.41
2023-04-28T05:03:04.234Z,100563.70
2023-04-28T05:04:04.255Z,100562.16
2023-04-28T05:05:16.740Z,100560.80
2023-04-28T05:06:04.957Z,100559.23
2023-04-28T05:07:05.227Z,100557.59
2023-04-28T05:08:06.025Z,100556.08
2023-04-28T05:09:06.951Z,100554.81
2023-04-28T05:10:07.111Z,100553.59
2023-04-28T05:11:07.838Z,100552.06
2023-04-28T05:12:08.662Z,100550.84
2023-04-28T05:13:09.552Z,100549.41
2023-04-28T05:13:29.552Z,100547.00
2023-04-28T05:14:30.327Z,100546.11
2023-04-28T05:15:31.077Z,100544.81
2023-04-28T05:16:31.833Z,100543.45
2023-04-28T05:17:32.492Z,100541.98
2023-04-28T05:18:33.186Z,100540.38
2023-04-28T05:19:33.232Z,100538.56
2023-04-28T05:20:34.008Z,100536.33
2023-04-28T05:21:34.086Z,100534.52
2023-04-28T05:22:34.951Z,100533.25
2023-04-28T05:23:35.244Z,100531.89
2023-04-28T05:24:35.956Z,100529.99
2023-04-28T05:25:59.869Z,100527.16
2023-04-28T05:26:59.427Z,100525.44
2023-04-28T05:28:00.046Z,100524.09
2023-04-28T05:29:00.827Z,100523.23
2023-04-28T05:30:01.726Z,100521.77
2023-04-28T05:31:01.981Z,100520.25
2023-04-28T05:32:02.596Z,100519.06
2023-04-28T05:33:02.746Z,100518.13
2023-04-28T05:34:03.623Z,100517.28
2023-04-28T05:35:04.458Z,100516.36
2023-04-28T05:36:05.673Z,100515.23
2023-04-28T05:37:05.432Z,100514.98
2023-04-28T05:37:14.118Z,100513.23
2023-04-28T05:38:14.484Z,100512.48
2023-04-28T05:39:16.013Z,100511.81
2023-04-28T05:40:15.716Z,100511.30
2023-04-28T05:41:16.334Z,100510.29
2023-04-28T05:42:17.318Z,100509.45
2023-04-28T05:43:17.658Z,100508.34
2023-04-28T05:44:18.516Z,100507.05
2023-04-28T05:45:18.669Z,100505.78
2023-04-28T05:46:30.142Z,100504.89
2023-04-28T05:47:20.836Z,100504.21
2023-04-28T05:48:20.455Z,100503.58
2023-04-28T05:49:21.033Z,100502.22
2023-04-28T05:49:29.730Z,100500.83
2023-04-28T05:50:29.932Z,100499.95
2023-04-28T05:51:30.546Z,100498.84
2023-04-28T05:52:31.294Z,100497.37
2023-04-28T05:53:32.033Z,100496.48
2023-04-28T05:54:32.806Z,100495.88
2023-04-28T05:55:33.437Z,100495.92
2023-04-28T05:56:34.000Z,100495.80
2023-04-28T05:57:45.774Z,100495.25
2023-04-28T05:58:35.470Z,100494.98
2023-04-28T05:59:35.514Z,100494.48
2023-04-28T05:59:49.644Z,100494.87
2023-04-28T06:00:48.652Z,100495.03
2023-04-28T06:01:49.118Z,100494.87
2023-04-28T06:02:49.284Z,100495.33
2023-04-28T06:03:49.752Z,100494.83
2023-04-28T06:04:50.255Z,100494.75
2023-04-28T06:05:50.685Z,100493.94
2023-04-28T06:06:51.300Z,100493.36
2023-04-28T06:07:53.711Z,100492.09
2023-04-28T06:08:52.477Z,100491.16
2023-04-28T06:09:52.904Z,100490.19
2023-04-28T06:10:53.660Z,100488.23
2023-04-28T06:11:54.274Z,100487.06
2023-04-28T06:12:07.388Z,100453.41
2023-04-28T06:13:08.246Z,100454.13
2023-04-28T06:14:08.975Z,100454.75
2023-04-28T06:15:09.088Z,100455.63
2023-04-28T06:16:09.771Z,100456.55
2023-04-28T06:17:10.117Z,100458.47
2023-04-28T06:18:10.984Z,100459.19
2023-04-28T06:19:11.492Z,100460.10
2023-04-28T06:20:11.735Z,100461.15
2023-04-28T06:21:12.485Z,100462.20
2023-04-28T06:22:12.905Z,100462.94
2023-04-28T06:23:13.316Z,100464.33
2023-04-28T06:23:23.014Z,100465.32
2023-04-28T06:24:23.959Z,100466.29
2023-04-28T06:25:24.588Z,100466.95
2023-04-28T06:26:25.208Z,100467.28
2023-04-28T06:27:25.448Z,100467.61
2023-04-28T06:28:25.495Z,100467.85
2023-04-28T06:29:25.634Z,100468.60
2023-04-28T06:30:26.354Z,100469.02
2023-04-28T06:31:26.589Z,100469.59
2023-04-28T06:32:27.535Z,100469.71
2023-04-28T06:33:27.513Z,100470.59
2023-04-28T06:34:30.128Z,100470.41
2023-04-28T06:34:43.382Z,100470.97
2023-04-28T06:35:44.457Z,100470.95
2023-04-28T06:36:44.386Z,100470.77
2023-04-28T06:37:45.113Z,100471.32
2023-04-28T06:38:46.719Z,100471.67
2023-04-28T06:39:46.389Z,100471.51
2023-04-28T06:40:47.292Z,100471.96
2023-04-28T06:41:48.030Z,100472.47
2023-04-28T06:42:48.848Z,100472.16
2023-04-28T06:43:49.411Z,100472.23
2023-04-28T06:44:50.130Z,100472.35
2023-04-28T06:45:02.056Z,100472.25
2023-04-28T06:46:02.664Z,100472.08
2023-04-28T06:47:02.846Z,100471.48
2023-04-28T06:48:03.710Z,100470.91
2023-04-28T06:49:04.304Z,100470.23
2023-04-28T06:50:05.105Z,100469.55
2023-04-28T06:51:06.008Z,100468.69
2023-04-28T06:52:06.284Z,100467.70
2023-04-28T06:53:07.009Z,100467.30
2023-04-28T06:54:07.439Z,100466.14
2023-04-28T06:55:07.527Z,100466.29
2023-04-28T06:56:09.819Z,100465.16
2023-04-28T06:56:20.574Z,100465.13
2023-04-28T06:57:20.308Z,100464.77
2023-04-28T06:58:20.985Z,100465.38
2023-04-28T06:59:21.513Z,100466.45
2023-04-28T07:00:22.193Z,100467.06
2023-04-28T07:01:22.466Z,100468.77
2023-04-28T07:02:22.668Z,100470.30
2023-04-28T07:03:22.611Z,100471.80
2023-04-28T07:04:23.553Z,100473.86
2023-04-28T07:05:23.647Z,100475.82
2023-04-28T07:06:24.265Z,100478.05
2023-04-28T07:07:25.069Z,100479.96
2023-04-28T07:08:25.108Z,100481.84
2023-04-28T07:08:38.233Z,100483.98
2023-04-28T07:09:38.682Z,100486.33
2023-04-28T07:11:01.949Z,100489.64
2023-04-28T07:12:02.391Z,100490.65
2023-04-28T07:13:03.191Z,100492.16
2023-04-28T07:14:03.825Z,100493.30
2023-04-28T07:15:04.684Z,100493.34
2023-04-28T07:16:04.992Z,100493.03
2023-04-28T07:17:05.011Z,100492.30
2023-04-28T07:18:05.126Z,100491.53
2023-04-28T07:19:06.119Z,100490.70
2023-04-28T07:20:05.969Z,100490.48
2023-04-28T07:21:06.901Z,100489.91
2023-04-28T07:22:07.732Z,100489.66
2023-04-28T07:22:20.060Z,100489.28
2023-04-28T07:23:20.944Z,100489.16
2023-04-28T07:24:21.263Z,100489.18
2023-04-28T07:25:21.677Z,100489.41
2023-04-28T07:26:22.060Z,100489.71
2023-04-28T07:27:22.569Z,100490.44
2023-04-28T07:28:22.976Z,100491.11
2023-04-28T07:29:23.180Z,100492.35
2023-04-28T07:30:27.807Z,100493.33
2023-04-28T07:31:24.390Z,100494.86
2023-04-28T07:32:24.501Z,100496.98
2023-04-28T07:33:25.254Z,100498.89
2023-04-28T07:34:26.096Z,100500.77
2023-04-28T07:35:26.814Z,100503.19
2023-04-28T07:36:27.613Z,100505.73
2023-04-28T07:37:28.342Z,100508.28
2023-04-28T07:37:40.018Z,100510.73
2023-04-28T07:38:40.908Z,100512.82
2023-04-28T07:39:41.225Z,100514.94
2023-04-28T07:40:41.367Z,100516.68
2023-04-28T07:41:41.535Z,100518.56
2023-04-28T07:42:41.697Z,100520.51
2023-04-28T07:43:42.487Z,100522.20
2023-04-28T07:44:42.888Z,100524.16
2023-04-28T07:45:43.711Z,100525.57
2023-04-28T07:46:44.339Z,100527.89
2023-04-28T07:47:47.320Z,100529.91
2023-04-28T07:48:45.475Z,100531.58
2023-04-28T07:48:58.947Z,100533.59
2023-04-28T07:49:59.068Z,100535.75
2023-04-28T07:50:59.594Z,100538.05
2023-04-28T07:51:59.610Z,100540.42
2023-04-28T07:53:00.431Z,100543.32
2023-04-28T07:54:02.644Z,100546.70
2023-04-28T07:55:03.117Z,100550.34
2023-04-28T07:56:03.987Z,100553.52
2023-04-28T07:57:03.720Z,100556.91
2023-04-28T07:58:04.174Z,100560.15
2023-04-28T07:59:05.003Z,100563.70
2023-04-28T08:00:05.836Z,100566.72
2023-04-28T08:01:06.190Z,100569.92
2023-04-28T08:02:07.664Z,100573.04
2023-04-28T08:03:10.336Z,100576.11
2023-04-28T08:04:09.289Z,100578.94
2023-04-28T08:04:22.713Z,100581.33
2023-04-28T08:05:22.190Z,100584.11
2023-04-28T08:06:22.006Z,100586.20
2023-04-28T08:07:22.877Z,100588.96
2023-04-28T08:08:23.713Z,100591.00
2023-04-28T08:09:24.523Z,100593.23
2023-04-28T08:10:24.597Z,100595.55
2023-04-28T08:11:25.304Z,100597.89
2023-04-28T08:12:26.126Z,100599.50
2023-04-28T08:13:26.297Z,100601.12
2023-04-28T08:14:27.975Z,100602.94
2023-04-28T08:15:28.039Z,100605.44
2023-04-28T08:16:28.517Z,100607.27
2023-04-28T08:17:30.551Z,100609.14
2023-04-28T08:18:29.810Z,100611.80
2023-04-28T08:18:41.530Z,100614.16
2023-04-28T08:19:41.555Z,100616.66
2023-04-28T08:20:42.298Z,100619.27
2023-04-28T08:21:43.237Z,100622.66
2023-04-28T08:22:43.412Z,100626.90
2023-04-28T08:23:43.885Z,100631.14
2023-04-28T08:24:44.038Z,100635.64
2023-04-28T08:25:44.813Z,100639.75
2023-04-28T08:26:45.061Z,100644.22
2023-04-28T08:27:45.198Z,100648.80
2023-04-28T08:28:46.021Z,100653.59
2023-04-28T08:29:46.638Z,100658.16
2023-04-28T08:30:46.779Z,100662.31
2023-04-28T08:30:58.862Z,100667.00
2023-04-28T08:31:59.677Z,100671.11
2023-04-28T08:33:00.182Z,100674.87
2023-04-28T08:34:00.921Z,100678.36
2023-04-28T08:35:01.739Z,100681.22
2023-04-28T08:36:02.435Z,100684.34
2023-04-28T08:37:03.005Z,100687.33
2023-04-28T08:38:03.991Z,100690.14
2023-04-28T08:39:04.328Z,100692.89
2023-04-28T08:40:04.857Z,100695.09
2023-04-28T08:41:05.011Z,100697.80
2023-04-28T08:42:05.666Z,100701.06
2023-04-28T08:42:17.287Z,100703.84
2023-04-28T08:43:21.051Z,100705.91
2023-04-28T08:44:18.855Z,100707.83
2023-04-28T08:45:19.183Z,100709.83
2023-04-28T08:46:19.256Z,100712.27
2023-04-28T08:47:19.950Z,100714.33
2023-04-28T08:48:20.758Z,100716.60
2023-04-28T08:49:20.947Z,100718.12
2023-04-28T08:50:21.596Z,100719.59
2023-04-28T08:52:00.858Z,100722.30
2023-04-28T08:53:00.974Z,100723.62
2023-04-28T08:55:01.878Z,100724.80
2023-04-28T08:56:03.099Z,100724.83
2023-04-28T08:57:02.986Z,100724.86
2023-04-28T08:58:03.815Z,100724.96
2023-04-28T08:59:04.464Z,100725.42
2023-04-28T09:00:04.705Z,100725.80
2023-04-28T09:01:05.537Z,100726.02
2023-04-28T09:02:05.510Z,100725.69
2023-04-28T09:03:06.120Z,100725.80
2023-04-28T09:03:23.284Z,100726.07
2023-04-28T09:04:23.654Z,100727.41
2023-04-28T09:05:24.446Z,100728.75
2023-04-28T09:06:24.948Z,100730.15
2023-04-28T09:07:25.164Z,100731.59
2023-04-28T09:08:25.735Z,100733.21
2023-04-28T09:09:26.650Z,100735.84
2023-04-28T09:10:27.624Z,100739.25
2023-04-28T09:11:27.916Z,100742.73
2023-04-28T09:12:29.133Z,100746.80
2023-04-28T09:13:29.021Z,100750.00
2023-04-28T09:13:37.715Z,100754.51
2023-04-28T09:14:37.857Z,100757.77
2023-04-28T09:15:38.850Z,100762.23
2023-04-28T09:16:39.061Z,100766.36
2023-04-28T09:17:39.264Z,100771.92
2023-04-28T09:18:39.726Z,100777.11
2023-04-28T09:19:40.202Z,100781.91
2023-04-28T09:20:40.744Z,100786.36
2023-04-28T09:21:41.376Z,100790.83
2023-04-28T09:22:42.331Z,100794.33
2023-04-28T09:23:42.793Z,100797.41
2023-04-28T09:23:58.266Z,100800.50
2023-04-28T09:24:59.225Z,100802.83
2023-04-28T09:25:59.387Z,100805.70
2023-04-28T09:27:01.681Z,100808.48
2023-04-28T09:28:02.829Z,100811.34
2023-04-28T09:29:01.262Z,100813.66
2023-04-28T09:30:01.527Z,100816.89
2023-04-28T09:31:02.452Z,100819.67
2023-04-28T09:32:02.619Z,100822.63
2023-04-28T09:33:03.643Z,100824.95
2023-04-28T09:34:03.894Z,100827.27
2023-04-28T09:35:04.119Z,100828.61
2023-04-28T09:36:05.021Z,100829.99
2023-04-28T09:37:05.131Z,100831.66
2023-04-28T09:37:14.034Z,100833.19
2023-04-28T09:38:14.871Z,100834.24
2023-04-28T09:39:16.819Z,100835.45
2023-04-28T09:40:15.902Z,100836.23
2023-04-28T09:41:15.994Z,100837.04
2023-04-28T09:42:16.846Z,100836.94
2023-04-28T09:43:21.965Z,100836.62
2023-04-28T09:44:18.443Z,100836.34
2023-04-28T09:45:24.844Z,100835.44
2023-04-28T09:46:19.096Z,100835.09
2023-04-28T09:47:19.954Z,100833.92
2023-04-28T09:48:20.176Z,100833.51
2023-04-28T09:48:30.275Z,100833.24
2023-04-28T09:49:31.033Z,100832.77
2023-04-28T09:50:31.737Z,100832.34
2023-04-28T09:51:32.575Z,100831.54
2023-04-28T09:52:33.284Z,100831.20
2023-04-28T09:53:33.934Z,100831.95
2023-04-28T09:54:34.493Z,100831.52
2023-04-28T09:55:35.037Z,100832.11
2023-04-28T09:56:36.009Z,100832.69
2023-04-28T09:57:36.644Z,100833.02
2023-04-28T09:58:37.322Z,100832.44
2023-04-28T09:58:49.045Z,100832.68
2023-04-28T09:59:49.043Z,100832.80
2023-04-28T10:00:49.752Z,100832.36
2023-04-28T10:01:49.908Z,100833.23
2023-04-28T10:02:49.952Z,100833.64
2023-04-28T10:03:50.705Z,100834.27
2023-04-28T10:04:51.450Z,100834.77
2023-04-28T10:05:51.889Z,100835.13
2023-04-28T10:06:52.054Z,100836.06
2023-04-28T10:07:52.747Z,100837.33
2023-04-28T10:08:52.946Z,100838.58
2023-04-28T10:09:53.619Z,100839.50
2023-04-28T10:10:02.736Z,100840.28
2023-04-28T10:11:03.378Z,100841.08
2023-04-28T10:12:05.336Z,100841.78
2023-04-28T10:13:05.170Z,100843.37
2023-04-28T10:14:05.919Z,100844.53
2023-04-28T10:15:06.628Z,100846.40
2023-04-28T10:16:07.294Z,100847.74
2023-04-28T10:17:08.258Z,100848.70
2023-04-28T10:18:09.016Z,100849.45
2023-04-28T10:19:09.853Z,100849.72
2023-04-28T10:20:10.452Z,100849.79
2023-04-28T10:21:11.238Z,100850.77
2023-04-28T10:21:23.342Z,100850.84
2023-04-28T10:22:23.893Z,100851.77
2023-04-28T10:23:24.076Z,100852.11
2023-04-28T10:24:24.939Z,100852.08
2023-04-28T10:25:25.932Z,100852.84
2023-04-28T10:26:26.840Z,100854.11
2023-04-28T10:27:27.465Z,100854.26
2023-04-28T10:28:28.083Z,100854.22
2023-04-28T10:29:28.129Z,100853.60
2023-04-28T10:30:29.956Z,100852.50
2023-04-28T10:31:29.655Z,100850.23
2023-04-28T10:31:38.247Z,100848.03
2023-04-28T10:32:38.368Z,100845.38
2023-04-28T10:33:39.109Z,100844.16
2023-04-28T10:34:39.216Z,100843.15
2023-04-28T10:35:39.865Z,100842.42
2023-04-28T10:36:40.460Z,100842.82
2023-04-28T10:37:41.658Z,100842.95
2023-04-28T10:38:41.310Z,100843.77
2023-04-28T10:39:41.527Z,100844.47
2023-04-28T10:40:42.124Z,100845.33
2023-04-28T10:41:43.718Z,100846.27
2023-04-28T10:42:43.092Z,100846.28
2023-04-28T10:42:51.869Z,100847.04
2023-04-28T10:43:52.143Z,100847.78
2023-04-28T10:44:52.897Z,100848.64
2023-04-28T10:45:56.483Z,100850.08
2023-04-28T10:46:54.384Z,100850.86
2023-04-28T10:47:55.251Z,100852.12